sensor_id;sensor_type;location;lat;lon;timestamp;P1;durP1;ratioP1;P2;durP2;ratioP2
67514;SDS011;60646;55.802;37.032;2024-02-14T00:00:22;4.50;;;1.70;;
67514;SDS011;60646;55.802;37.032;2024-02-14T00:02:50;5.57;;;2.15;;
67514;SDS011;60646;55.802;37.032;2024-02-14T00:05:17;2.60;;;1.50;;
67514;SDS011;60646;55.802;37.032;2024-02-14T00:07:45;6.90;;;2.42;;
67514;SDS011;60646;55.802;37.032;2024-02-14T00:10:11;3.53;;;1.85;;
67514;SDS011;60646;55.802;37.032;2024-02-14T00:12:41;3.05;;;1.90;;
67514;SDS011;60646;55.802;37.032;2024-02-14T00:15:08;3.47;;;1.70;;
67514;SDS011;60646;55.802;37.032;2024-02-14T00:17:36;4.00;;;2.03;;
67514;SDS011;60646;55.802;37.032;2024-02-14T00:20:02;3.25;;;1.95;;
67514;SDS011;60646;55.802;37.032;2024-02-14T00:22:44;3.10;;;2.03;;
67514;SDS011;60646;55.802;37.032;2024-02-14T00:25:10;3.70;;;1.80;;
67514;SDS011;60646;55.802;37.032;2024-02-14T00:27:38;3.13;;;2.08;;
67514;SDS011;60646;55.802;37.032;2024-02-14T00:30:05;5.43;;;2.20;;
67514;SDS011;60646;55.802;37.032;2024-02-14T00:32:51;4.25;;;1.77;;
67514;SDS011;60646;55.802;37.032;2024-02-14T00:35:17;3.42;;;1.60;;
67514;SDS011;60646;55.802;37.032;2024-02-14T00:37:43;3.03;;;1.70;;
67514;SDS011;60646;55.802;37.032;2024-02-14T00:40:09;3.63;;;1.88;;
67514;SDS011;60646;55.802;37.032;2024-02-14T00:42:36;3.10;;;1.85;;
67514;SDS011;60646;55.802;37.032;2024-02-14T00:45:03;4.15;;;1.95;;
67514;SDS011;60646;55.802;37.032;2024-02-14T00:47:34;4.18;;;2.17;;
67514;SDS011;60646;55.802;37.032;2024-02-14T00:50:00;4.82;;;2.33;;
67514;SDS011;60646;55.802;37.032;2024-02-14T00:52:30;4.22;;;2.50;;
67514;SDS011;60646;55.802;37.032;2024-02-14T00:54:56;4.32;;;1.70;;
67514;SDS011;60646;55.802;37.032;2024-02-14T00:57:22;5.38;;;1.85;;
67514;SDS011;60646;55.802;37.032;2024-02-14T00:59:52;6.03;;;1.83;;
67514;SDS011;60646;55.802;37.032;2024-02-14T01:02:18;4.60;;;2.05;;
67514;SDS011;60646;55.802;37.032;2024-02-14T01:04:44;3.95;;;2.00;;
67514;SDS011;60646;55.802;37.032;2024-02-14T01:07:10;3.50;;;1.73;;
67514;SDS011;60646;55.802;37.032;2024-02-14T01:09:36;3.63;;;1.70;;
67514;SDS011;60646;55.802;37.032;2024-02-14T01:12:02;4.32;;;1.70;;
67514;SDS011;60646;55.802;37.032;2024-02-14T01:14:28;3.95;;;1.92;;
67514;SDS011;60646;55.802;37.032;2024-02-14T01:16:54;5.28;;;1.90;;
67514;SDS011;60646;55.802;37.032;2024-02-14T01:19:20;5.22;;;2.40;;
67514;SDS011;60646;55.802;37.032;2024-02-14T01:21:46;3.42;;;1.73;;
67514;SDS011;60646;55.802;37.032;2024-02-14T01:24:14;5.00;;;2.38;;
67514;SDS011;60646;55.802;37.032;2024-02-14T01:26:40;3.08;;;1.55;;
67514;SDS011;60646;55.802;37.032;2024-02-14T01:29:06;2.42;;;1.50;;
67514;SDS011;60646;55.802;37.032;2024-02-14T01:31:32;2.95;;;1.88;;
67514;SDS011;60646;55.802;37.032;2024-02-14T01:34:00;3.17;;;1.55;;
67514;SDS011;60646;55.802;37.032;2024-02-14T01:36:30;5.13;;;1.95;;
67514;SDS011;60646;55.802;37.032;2024-02-14T01:38:56;2.75;;;1.73;;
67514;SDS011;60646;55.802;37.032;2024-02-14T01:41:22;3.95;;;1.73;;
67514;SDS011;60646;55.802;37.032;2024-02-14T01:43:49;2.13;;;1.48;;
67514;SDS011;60646;55.802;37.032;2024-02-14T01:46:14;2.80;;;1.38;;
67514;SDS011;60646;55.802;37.032;2024-02-14T01:48:52;3.63;;;2.10;;
67514;SDS011;60646;55.802;37.032;2024-02-14T01:51:19;4.00;;;2.10;;
67514;SDS011;60646;55.802;37.032;2024-02-14T01:53:52;3.38;;;1.60;;
67514;SDS011;60646;55.802;37.032;2024-02-14T01:56:20;3.20;;;1.90;;
67514;SDS011;60646;55.802;37.032;2024-02-14T01:58:46;5.30;;;1.75;;
67514;SDS011;60646;55.802;37.032;2024-02-14T02:01:12;2.55;;;1.35;;
67514;SDS011;60646;55.802;37.032;2024-02-14T02:03:39;3.30;;;1.60;;
67514;SDS011;60646;55.802;37.032;2024-02-14T02:06:05;3.42;;;1.77;;
67514;SDS011;60646;55.802;37.032;2024-02-14T02:08:32;3.42;;;1.92;;
67514;SDS011;60646;55.802;37.032;2024-02-14T02:10:58;4.55;;;1.80;;
67514;SDS011;60646;55.802;37.032;2024-02-14T02:13:44;4.07;;;1.58;;
67514;SDS011;60646;55.802;37.032;2024-02-14T02:16:30;1.92;;;1.08;;
67514;SDS011;60646;55.802;37.032;2024-02-14T02:19:30;3.75;;;1.52;;
67514;SDS011;60646;55.802;37.032;2024-02-14T02:22:18;4.03;;;2.03;;
67514;SDS011;60646;55.802;37.032;2024-02-14T02:25:04;2.60;;;1.20;;
67514;SDS011;60646;55.802;37.032;2024-02-14T02:27:40;3.33;;;1.38;;
67514;SDS011;60646;55.802;37.032;2024-02-14T02:30:25;3.10;;;1.50;;
67514;SDS011;60646;55.802;37.032;2024-02-14T02:32:52;3.92;;;1.60;;
67514;SDS011;60646;55.802;37.032;2024-02-14T02:35:18;2.88;;;1.33;;
67514;SDS011;60646;55.802;37.032;2024-02-14T02:38:06;5.38;;;1.90;;
67514;SDS011;60646;55.802;37.032;2024-02-14T02:40:51;4.18;;;2.13;;
67514;SDS011;60646;55.802;37.032;2024-02-14T02:43:37;2.33;;;1.42;;
67514;SDS011;60646;55.802;37.032;2024-02-14T02:46:23;2.05;;;1.75;;
67514;SDS011;60646;55.802;37.032;2024-02-14T02:49:11;3.22;;;1.63;;
67514;SDS011;60646;55.802;37.032;2024-02-14T02:51:43;2.55;;;1.73;;
67514;SDS011;60646;55.802;37.032;2024-02-14T02:54:29;4.10;;;1.65;;
67514;SDS011;60646;55.802;37.032;2024-02-14T02:57:18;2.88;;;1.70;;
67514;SDS011;60646;55.802;37.032;2024-02-14T02:59:44;3.05;;;1.60;;
67514;SDS011;60646;55.802;37.032;2024-02-14T03:02:12;2.92;;;1.85;;
67514;SDS011;60646;55.802;37.032;2024-02-14T03:04:58;2.75;;;1.77;;
67514;SDS011;60646;55.802;37.032;2024-02-14T03:07:44;2.38;;;1.52;;
67514;SDS011;60646;55.802;37.032;2024-02-14T03:10:49;2.17;;;1.42;;
67514;SDS011;60646;55.802;37.032;2024-02-14T03:13:34;2.45;;;1.65;;
67514;SDS011;60646;55.802;37.032;2024-02-14T03:16:21;2.72;;;1.20;;
67514;SDS011;60646;55.802;37.032;2024-02-14T03:18:47;3.42;;;1.70;;
67514;SDS011;60646;55.802;37.032;2024-02-14T03:21:13;2.53;;;1.50;;
67514;SDS011;60646;55.802;37.032;2024-02-14T03:23:39;6.60;;;2.10;;
67514;SDS011;60646;55.802;37.032;2024-02-14T03:26:06;2.60;;;1.50;;
67514;SDS011;60646;55.802;37.032;2024-02-14T03:28:33;2.92;;;1.60;;
67514;SDS011;60646;55.802;37.032;2024-02-14T03:30:59;3.53;;;1.63;;
67514;SDS011;60646;55.802;37.032;2024-02-14T03:33:25;3.83;;;2.17;;
67514;SDS011;60646;55.802;37.032;2024-02-14T03:35:51;4.03;;;2.17;;
67514;SDS011;60646;55.802;37.032;2024-02-14T03:38:26;3.78;;;2.05;;
67514;SDS011;60646;55.802;37.032;2024-02-14T03:40:53;4.10;;;2.15;;
67514;SDS011;60646;55.802;37.032;2024-02-14T03:43:19;2.53;;;1.23;;
67514;SDS011;60646;55.802;37.032;2024-02-14T03:45:47;3.10;;;2.30;;
67514;SDS011;60646;55.802;37.032;2024-02-14T03:48:13;6.03;;;2.35;;
67514;SDS011;60646;55.802;37.032;2024-02-14T03:50:57;4.10;;;1.80;;
67514;SDS011;60646;55.802;37.032;2024-02-14T03:53:23;4.10;;;1.63;;
67514;SDS011;60646;55.802;37.032;2024-02-14T03:56:07;2.25;;;1.67;;
67514;SDS011;60646;55.802;37.032;2024-02-14T03:58:33;4.72;;;1.70;;
67514;SDS011;60646;55.802;37.032;2024-02-14T04:01:03;3.40;;;1.50;;
67514;SDS011;60646;55.802;37.032;2024-02-14T04:03:29;2.53;;;1.40;;
67514;SDS011;60646;55.802;37.032;2024-02-14T04:05:55;3.22;;;1.88;;
67514;SDS011;60646;55.802;37.032;2024-02-14T04:08:21;2.78;;;1.75;;
67514;SDS011;60646;55.802;37.032;2024-02-14T04:10:47;2.60;;;1.60;;
67514;SDS011;60646;55.802;37.032;2024-02-14T04:13:19;4.00;;;1.70;;
67514;SDS011;60646;55.802;37.032;2024-02-14T04:15:45;4.03;;;1.75;;
67514;SDS011;60646;55.802;37.032;2024-02-14T04:18:30;2.22;;;1.70;;
67514;SDS011;60646;55.802;37.032;2024-02-14T04:20:56;1.88;;;1.27;;
67514;SDS011;60646;55.802;37.032;2024-02-14T04:23:21;2.58;;;1.38;;
67514;SDS011;60646;55.802;37.032;2024-02-14T04:25:48;2.83;;;1.40;;
67514;SDS011;60646;55.802;37.032;2024-02-14T04:28:14;2.88;;;1.50;;
67514;SDS011;60646;55.802;37.032;2024-02-14T04:30:40;2.25;;;1.40;;
67514;SDS011;60646;55.802;37.032;2024-02-14T04:33:23;2.40;;;1.40;;
67514;SDS011;60646;55.802;37.032;2024-02-14T04:35:49;2.78;;;1.60;;
67514;SDS011;60646;55.802;37.032;2024-02-14T04:38:15;3.03;;;1.92;;
67514;SDS011;60646;55.802;37.032;2024-02-14T04:40:43;3.65;;;1.92;;
67514;SDS011;60646;55.802;37.032;2024-02-14T04:43:10;4.20;;;1.63;;
67514;SDS011;60646;55.802;37.032;2024-02-14T04:45:36;6.03;;;1.58;;
67514;SDS011;60646;55.802;37.032;2024-02-14T04:48:06;2.28;;;1.50;;
67514;SDS011;60646;55.802;37.032;2024-02-14T04:50:34;3.83;;;1.65;;
67514;SDS011;60646;55.802;37.032;2024-02-14T04:53:00;5.25;;;2.65;;
67514;SDS011;60646;55.802;37.032;2024-02-14T04:55:26;4.22;;;1.42;;
67514;SDS011;60646;55.802;37.032;2024-02-14T04:57:53;4.00;;;1.85;;
67514;SDS011;60646;55.802;37.032;2024-02-14T05:00:20;3.15;;;1.77;;
67514;SDS011;60646;55.802;37.032;2024-02-14T05:02:46;3.45;;;1.90;;
67514;SDS011;60646;55.802;37.032;2024-02-14T05:05:11;3.33;;;1.58;;
67514;SDS011;60646;55.802;37.032;2024-02-14T05:07:52;4.43;;;2.00;;
67514;SDS011;60646;55.802;37.032;2024-02-14T05:10:19;2.40;;;1.55;;
67514;SDS011;60646;55.802;37.032;2024-02-14T05:12:45;4.50;;;1.88;;
67514;SDS011;60646;55.802;37.032;2024-02-14T05:15:12;4.43;;;2.00;;
67514;SDS011;60646;55.802;37.032;2024-02-14T05:17:38;2.90;;;1.83;;
67514;SDS011;60646;55.802;37.032;2024-02-14T05:20:07;3.28;;;1.88;;
67514;SDS011;60646;55.802;37.032;2024-02-14T05:22:37;3.33;;;1.60;;
67514;SDS011;60646;55.802;37.032;2024-02-14T05:25:04;2.95;;;2.00;;
67514;SDS011;60646;55.802;37.032;2024-02-14T05:27:43;4.60;;;1.85;;
67514;SDS011;60646;55.802;37.032;2024-02-14T05:30:12;3.20;;;1.88;;
67514;SDS011;60646;55.802;37.032;2024-02-14T05:32:53;2.97;;;1.83;;
67514;SDS011;60646;55.802;37.032;2024-02-14T05:35:20;4.78;;;2.63;;
67514;SDS011;60646;55.802;37.032;2024-02-14T05:37:47;2.45;;;1.52;;
67514;SDS011;60646;55.802;37.032;2024-02-14T05:40:15;2.88;;;1.88;;
67514;SDS011;60646;55.802;37.032;2024-02-14T05:42:42;2.78;;;1.48;;
67514;SDS011;60646;55.802;37.032;2024-02-14T05:45:09;3.65;;;1.50;;
67514;SDS011;60646;55.802;37.032;2024-02-14T05:47:37;3.63;;;2.03;;
67514;SDS011;60646;55.802;37.032;2024-02-14T05:50:03;3.80;;;1.48;;
67514;SDS011;60646;55.802;37.032;2024-02-14T05:52:33;3.55;;;1.85;;
67514;SDS011;60646;55.802;37.032;2024-02-14T05:55:17;4.25;;;1.85;;
67514;SDS011;60646;55.802;37.032;2024-02-14T05:57:56;2.95;;;1.38;;
67514;SDS011;60646;55.802;37.032;2024-02-14T06:00:24;2.47;;;1.75;;
67514;SDS011;60646;55.802;37.032;2024-02-14T06:02:50;4.47;;;1.95;;
67514;SDS011;60646;55.802;37.032;2024-02-14T06:05:16;4.38;;;2.42;;
67514;SDS011;60646;55.802;37.032;2024-02-14T06:07:43;2.20;;;1.52;;
67514;SDS011;60646;55.802;37.032;2024-02-14T06:10:12;3.38;;;2.00;;
67514;SDS011;60646;55.802;37.032;2024-02-14T06:12:39;2.60;;;1.20;;
67514;SDS011;60646;55.802;37.032;2024-02-14T06:15:09;2.40;;;1.45;;
67514;SDS011;60646;55.802;37.032;2024-02-14T06:17:39;2.70;;;1.50;;
67514;SDS011;60646;55.802;37.032;2024-02-14T06:20:06;3.45;;;2.17;;
67514;SDS011;60646;55.802;37.032;2024-02-14T06:22:35;3.33;;;1.45;;
67514;SDS011;60646;55.802;37.032;2024-02-14T06:25:01;2.95;;;2.00;;
67514;SDS011;60646;55.802;37.032;2024-02-14T06:27:32;3.85;;;2.17;;
67514;SDS011;60646;55.802;37.032;2024-02-14T06:29:58;6.82;;;1.88;;
67514;SDS011;60646;55.802;37.032;2024-02-14T06:32:25;6.55;;;2.10;;
67514;SDS011;60646;55.802;37.032;2024-02-14T06:34:51;3.38;;;1.83;;
67514;SDS011;60646;55.802;37.032;2024-02-14T06:37:17;3.55;;;1.67;;
67514;SDS011;60646;55.802;37.032;2024-02-14T06:39:42;1.88;;;1.23;;
67514;SDS011;60646;55.802;37.032;2024-02-14T06:42:08;4.25;;;1.98;;
67514;SDS011;60646;55.802;37.032;2024-02-14T06:44:34;4.95;;;1.98;;
67514;SDS011;60646;55.802;37.032;2024-02-14T06:47:00;4.90;;;2.42;;
67514;SDS011;60646;55.802;37.032;2024-02-14T06:49:26;4.07;;;1.92;;
67514;SDS011;60646;55.802;37.032;2024-02-14T06:51:52;4.93;;;2.17;;
67514;SDS011;60646;55.802;37.032;2024-02-14T06:54:18;3.80;;;1.92;;
67514;SDS011;60646;55.802;37.032;2024-02-14T06:56:45;5.47;;;1.88;;
67514;SDS011;60646;55.802;37.032;2024-02-14T06:59:11;4.43;;;1.75;;
67514;SDS011;60646;55.802;37.032;2024-02-14T07:01:37;5.18;;;2.47;;
67514;SDS011;60646;55.802;37.032;2024-02-14T07:04:04;5.70;;;2.53;;
67514;SDS011;60646;55.802;37.032;2024-02-14T07:06:31;6.50;;;2.60;;
67514;SDS011;60646;55.802;37.032;2024-02-14T07:08:57;5.28;;;2.35;;
67514;SDS011;60646;55.802;37.032;2024-02-14T07:11:23;7.10;;;3.90;;
67514;SDS011;60646;55.802;37.032;2024-02-14T07:13:49;7.88;;;3.42;;
67514;SDS011;60646;55.802;37.032;2024-02-14T07:16:15;4.43;;;2.15;;
67514;SDS011;60646;55.802;37.032;2024-02-14T07:18:41;5.60;;;2.00;;
67514;SDS011;60646;55.802;37.032;2024-02-14T07:21:08;5.88;;;2.50;;
67514;SDS011;60646;55.802;37.032;2024-02-14T07:23:34;5.15;;;2.67;;
67514;SDS011;60646;55.802;37.032;2024-02-14T07:26:00;7.05;;;2.50;;
67514;SDS011;60646;55.802;37.032;2024-02-14T07:28:27;4.82;;;2.40;;
67514;SDS011;60646;55.802;37.032;2024-02-14T07:30:53;5.63;;;2.53;;
67514;SDS011;60646;55.802;37.032;2024-02-14T07:33:18;5.82;;;2.10;;
67514;SDS011;60646;55.802;37.032;2024-02-14T07:35:44;3.67;;;2.00;;
67514;SDS011;60646;55.802;37.032;2024-02-14T07:38:12;4.47;;;2.22;;
67514;SDS011;60646;55.802;37.032;2024-02-14T07:40:39;5.13;;;2.30;;
67514;SDS011;60646;55.802;37.032;2024-02-14T07:43:24;3.53;;;2.08;;
67514;SDS011;60646;55.802;37.032;2024-02-14T07:45:50;4.20;;;2.25;;
67514;SDS011;60646;55.802;37.032;2024-02-14T07:48:16;6.88;;;2.63;;
67514;SDS011;60646;55.802;37.032;2024-02-14T07:50:42;5.05;;;2.33;;
67514;SDS011;60646;55.802;37.032;2024-02-14T07:53:08;4.57;;;1.80;;
67514;SDS011;60646;55.802;37.032;2024-02-14T07:55:34;15.13;;;6.32;;
67514;SDS011;60646;55.802;37.032;2024-02-14T07:57:59;8.05;;;3.08;;
67514;SDS011;60646;55.802;37.032;2024-02-14T08:00:25;5.13;;;2.22;;
67514;SDS011;60646;55.802;37.032;2024-02-14T08:02:51;6.15;;;2.30;;
67514;SDS011;60646;55.802;37.032;2024-02-14T08:05:17;3.95;;;2.47;;
67514;SDS011;60646;55.802;37.032;2024-02-14T08:07:44;5.70;;;2.22;;
67514;SDS011;60646;55.802;37.032;2024-02-14T08:10:12;4.85;;;2.45;;
67514;SDS011;60646;55.802;37.032;2024-02-14T08:12:38;5.97;;;2.13;;
67514;SDS011;60646;55.802;37.032;2024-02-14T08:15:04;4.65;;;2.30;;
67514;SDS011;60646;55.802;37.032;2024-02-14T08:17:33;3.83;;;1.80;;
67514;SDS011;60646;55.802;37.032;2024-02-14T08:19:59;6.05;;;2.15;;
67514;SDS011;60646;55.802;37.032;2024-02-14T08:22:26;3.70;;;2.30;;
67514;SDS011;60646;55.802;37.032;2024-02-14T08:24:52;6.53;;;1.98;;
67514;SDS011;60646;55.802;37.032;2024-02-14T08:27:18;4.78;;;2.13;;
67514;SDS011;60646;55.802;37.032;2024-02-14T08:29:44;5.75;;;2.42;;
67514;SDS011;60646;55.802;37.032;2024-02-14T08:32:10;5.05;;;2.38;;
67514;SDS011;60646;55.802;37.032;2024-02-14T08:34:36;5.03;;;2.03;;
67514;SDS011;60646;55.802;37.032;2024-02-14T08:37:02;6.70;;;2.50;;
67514;SDS011;60646;55.802;37.032;2024-02-14T08:39:28;4.93;;;1.92;;
67514;SDS011;60646;55.802;37.032;2024-02-14T08:41:54;5.88;;;2.13;;
67514;SDS011;60646;55.802;37.032;2024-02-14T08:44:20;4.80;;;2.30;;
67514;SDS011;60646;55.802;37.032;2024-02-14T08:46:46;3.40;;;1.63;;
67514;SDS011;60646;55.802;37.032;2024-02-14T08:49:14;4.68;;;2.25;;
67514;SDS011;60646;55.802;37.032;2024-02-14T08:51:40;3.97;;;1.95;;
67514;SDS011;60646;55.802;37.032;2024-02-14T08:54:08;5.13;;;2.10;;
67514;SDS011;60646;55.802;37.032;2024-02-14T08:56:34;4.43;;;2.22;;
67514;SDS011;60646;55.802;37.032;2024-02-14T08:59:00;6.13;;;1.92;;
67514;SDS011;60646;55.802;37.032;2024-02-14T09:01:29;4.70;;;2.03;;
67514;SDS011;60646;55.802;37.032;2024-02-14T09:03:55;8.63;;;2.80;;
67514;SDS011;60646;55.802;37.032;2024-02-14T09:06:21;6.32;;;2.40;;
67514;SDS011;60646;55.802;37.032;2024-02-14T09:08:48;4.65;;;2.13;;
67514;SDS011;60646;55.802;37.032;2024-02-14T09:11:16;4.90;;;2.00;;
67514;SDS011;60646;55.802;37.032;2024-02-14T09:13:42;5.65;;;2.42;;
67514;SDS011;60646;55.802;37.032;2024-02-14T09:16:08;4.43;;;1.90;;
67514;SDS011;60646;55.802;37.032;2024-02-14T09:18:34;4.63;;;1.83;;
67514;SDS011;60646;55.802;37.032;2024-02-14T09:21:01;4.03;;;2.30;;
67514;SDS011;60646;55.802;37.032;2024-02-14T09:23:31;6.15;;;2.38;;
67514;SDS011;60646;55.802;37.032;2024-02-14T09:25:57;4.20;;;2.17;;
67514;SDS011;60646;55.802;37.032;2024-02-14T09:28:42;5.15;;;2.03;;
67514;SDS011;60646;55.802;37.032;2024-02-14T09:31:27;3.85;;;2.00;;
67514;SDS011;60646;55.802;37.032;2024-02-14T09:33:53;11.48;;;2.53;;
67514;SDS011;60646;55.802;37.032;2024-02-14T09:36:22;8.43;;;2.47;;
67514;SDS011;60646;55.802;37.032;2024-02-14T09:38:50;5.55;;;2.22;;
67514;SDS011;60646;55.802;37.032;2024-02-14T09:44:00;7.53;;;3.00;;
67514;SDS011;60646;55.802;37.032;2024-02-14T09:46:27;7.32;;;2.92;;
67514;SDS011;60646;55.802;37.032;2024-02-14T09:48:55;8.82;;;3.67;;
67514;SDS011;60646;55.802;37.032;2024-02-14T09:51:24;7.18;;;2.78;;
67514;SDS011;60646;55.802;37.032;2024-02-14T09:53:51;8.20;;;2.70;;
67514;SDS011;60646;55.802;37.032;2024-02-14T09:56:20;4.32;;;2.28;;
67514;SDS011;60646;55.802;37.032;2024-02-14T09:58:49;4.50;;;2.28;;
67514;SDS011;60646;55.802;37.032;2024-02-14T10:01:24;2.88;;;1.67;;
67514;SDS011;60646;55.802;37.032;2024-02-14T10:03:51;5.68;;;2.28;;
67514;SDS011;60646;55.802;37.032;2024-02-14T10:06:17;5.18;;;2.28;;
67514;SDS011;60646;55.802;37.032;2024-02-14T10:08:46;5.80;;;2.25;;
67514;SDS011;60646;55.802;37.032;2024-02-14T10:11:12;5.15;;;2.13;;
67514;SDS011;60646;55.802;37.032;2024-02-14T10:13:40;4.13;;;2.25;;
67514;SDS011;60646;55.802;37.032;2024-02-14T10:16:07;6.43;;;2.58;;
67514;SDS011;60646;55.802;37.032;2024-02-14T10:18:34;6.18;;;2.58;;
67514;SDS011;60646;55.802;37.032;2024-02-14T10:21:00;6.75;;;2.35;;
67514;SDS011;60646;55.802;37.032;2024-02-14T10:23:27;5.35;;;2.13;;
67514;SDS011;60646;55.802;37.032;2024-02-14T10:25:53;5.30;;;2.80;;
67514;SDS011;60646;55.802;37.032;2024-02-14T10:28:21;5.28;;;2.60;;
67514;SDS011;60646;55.802;37.032;2024-02-14T10:30:47;5.90;;;2.35;;
67514;SDS011;60646;55.802;37.032;2024-02-14T10:33:17;4.82;;;2.17;;
67514;SDS011;60646;55.802;37.032;2024-02-14T10:35:47;5.63;;;2.05;;
67514;SDS011;60646;55.802;37.032;2024-02-14T10:38:15;5.00;;;2.10;;
67514;SDS011;60646;55.802;37.032;2024-02-14T10:40:43;6.22;;;2.72;;
67514;SDS011;60646;55.802;37.032;2024-02-14T10:43:12;11.77;;;3.38;;
67514;SDS011;60646;55.802;37.032;2024-02-14T10:45:39;6.47;;;2.35;;
67514;SDS011;60646;55.802;37.032;2024-02-14T10:48:06;4.93;;;2.30;;
67514;SDS011;60646;55.802;37.032;2024-02-14T10:50:40;6.93;;;2.17;;
67514;SDS011;60646;55.802;37.032;2024-02-14T10:53:08;7.43;;;2.72;;
67514;SDS011;60646;55.802;37.032;2024-02-14T10:55:39;5.95;;;2.70;;
67514;SDS011;60646;55.802;37.032;2024-02-14T10:58:08;6.15;;;2.60;;
67514;SDS011;60646;55.802;37.032;2024-02-14T11:00:37;6.13;;;2.90;;
67514;SDS011;60646;55.802;37.032;2024-02-14T11:03:06;5.70;;;2.40;;
67514;SDS011;60646;55.802;37.032;2024-02-14T11:05:42;7.60;;;2.80;;
67514;SDS011;60646;55.802;37.032;2024-02-14T11:08:21;5.55;;;2.80;;
67514;SDS011;60646;55.802;37.032;2024-02-14T11:10:55;4.53;;;2.20;;
67514;SDS011;60646;55.802;37.032;2024-02-14T11:13:25;4.28;;;2.53;;
67514;SDS011;60646;55.802;37.032;2024-02-14T11:15:54;5.00;;;2.70;;
67514;SDS011;60646;55.802;37.032;2024-02-14T11:18:28;5.28;;;2.95;;
67514;SDS011;60646;55.802;37.032;2024-02-14T11:21:04;7.30;;;2.80;;
67514;SDS011;60646;55.802;37.032;2024-02-14T11:23:31;10.07;;;2.80;;
67514;SDS011;60646;55.802;37.032;2024-02-14T11:26:00;5.10;;;2.72;;
67514;SDS011;60646;55.802;37.032;2024-02-14T11:28:36;6.20;;;2.47;;
67514;SDS011;60646;55.802;37.032;2024-02-14T11:31:06;5.05;;;2.67;;
67514;SDS011;60646;55.802;37.032;2024-02-14T11:33:35;6.80;;;2.63;;
67514;SDS011;60646;55.802;37.032;2024-02-14T11:36:07;8.85;;;2.95;;
67514;SDS011;60646;55.802;37.032;2024-02-14T11:38:36;6.47;;;2.60;;
67514;SDS011;60646;55.802;37.032;2024-02-14T11:41:02;7.65;;;2.88;;
67514;SDS011;60646;55.802;37.032;2024-02-14T11:43:32;7.90;;;2.83;;
67514;SDS011;60646;55.802;37.032;2024-02-14T11:45:58;7.03;;;2.90;;
67514;SDS011;60646;55.802;37.032;2024-02-14T11:48:24;5.72;;;2.72;;
67514;SDS011;60646;55.802;37.032;2024-02-14T11:50:51;4.85;;;2.88;;
67514;SDS011;60646;55.802;37.032;2024-02-14T11:53:19;9.00;;;3.28;;
67514;SDS011;60646;55.802;37.032;2024-02-14T11:55:45;8.75;;;2.88;;
67514;SDS011;60646;55.802;37.032;2024-02-14T11:58:16;5.07;;;2.67;;
67514;SDS011;60646;55.802;37.032;2024-02-14T12:00:44;6.70;;;2.88;;
67514;SDS011;60646;55.802;37.032;2024-02-14T12:03:12;6.45;;;2.85;;
67514;SDS011;60646;55.802;37.032;2024-02-14T12:05:45;4.90;;;2.67;;
67514;SDS011;60646;55.802;37.032;2024-02-14T12:08:13;5.28;;;2.38;;
67514;SDS011;60646;55.802;37.032;2024-02-14T12:10:42;8.45;;;3.10;;
67514;SDS011;60646;55.802;37.032;2024-02-14T12:34:11;7.80;;;3.85;;
67514;SDS011;60646;55.802;37.032;2024-02-14T12:36:37;7.88;;;3.45;;
67514;SDS011;60646;55.802;37.032;2024-02-14T12:39:03;6.85;;;3.70;;
67514;SDS011;60646;55.802;37.032;2024-02-14T12:41:30;7.18;;;3.50;;
67514;SDS011;60646;55.802;37.032;2024-02-14T12:43:58;7.75;;;3.20;;
67514;SDS011;60646;55.802;37.032;2024-02-14T12:46:24;5.63;;;3.05;;
67514;SDS011;60646;55.802;37.032;2024-02-14T12:48:50;5.50;;;3.28;;
67514;SDS011;60646;55.802;37.032;2024-02-14T12:51:16;5.40;;;2.83;;
67514;SDS011;60646;55.802;37.032;2024-02-14T12:53:42;6.68;;;2.88;;
67514;SDS011;60646;55.802;37.032;2024-02-14T12:56:08;8.35;;;2.95;;
67514;SDS011;60646;55.802;37.032;2024-02-14T12:58:34;6.85;;;2.85;;
67514;SDS011;60646;55.802;37.032;2024-02-14T13:01:00;5.20;;;2.55;;
67514;SDS011;60646;55.802;37.032;2024-02-14T13:03:46;6.50;;;2.97;;
67514;SDS011;60646;55.802;37.032;2024-02-14T13:06:12;7.70;;;2.78;;
67514;SDS011;60646;55.802;37.032;2024-02-14T13:08:39;5.07;;;2.40;;
67514;SDS011;60646;55.802;37.032;2024-02-14T13:11:05;6.30;;;2.90;;
67514;SDS011;60646;55.802;37.032;2024-02-14T13:13:34;6.25;;;2.30;;
67514;SDS011;60646;55.802;37.032;2024-02-14T13:16:01;7.22;;;3.22;;
67514;SDS011;60646;55.802;37.032;2024-02-14T13:18:27;8.00;;;2.60;;
67514;SDS011;60646;55.802;37.032;2024-02-14T13:20:52;7.97;;;2.70;;
67514;SDS011;60646;55.802;37.032;2024-02-14T13:23:25;8.30;;;2.88;;
67514;SDS011;60646;55.802;37.032;2024-02-14T13:25:51;5.35;;;2.33;;
67514;SDS011;60646;55.802;37.032;2024-02-14T13:28:17;4.82;;;2.30;;
67514;SDS011;60646;55.802;37.032;2024-02-14T13:30:44;5.53;;;2.58;;
67514;SDS011;60646;55.802;37.032;2024-02-14T13:35:56;6.03;;;2.75;;
67514;SDS011;60646;55.802;37.032;2024-02-14T13:38:22;5.88;;;3.10;;
67514;SDS011;60646;55.802;37.032;2024-02-14T13:40:48;11.32;;;2.38;;
67514;SDS011;60646;55.802;37.032;2024-02-14T13:43:14;4.72;;;2.65;;
67514;SDS011;60646;55.802;37.032;2024-02-14T13:45:45;5.95;;;2.55;;
67514;SDS011;60646;55.802;37.032;2024-02-14T13:48:13;5.53;;;2.55;;
67514;SDS011;60646;55.802;37.032;2024-02-14T13:50:39;5.30;;;2.70;;
67514;SDS011;60646;55.802;37.032;2024-02-14T13:53:06;6.13;;;3.03;;
67514;SDS011;60646;55.802;37.032;2024-02-14T13:55:33;8.27;;;2.47;;
67514;SDS011;60646;55.802;37.032;2024-02-14T13:57:59;4.85;;;2.42;;
67514;SDS011;60646;55.802;37.032;2024-02-14T14:00:25;5.63;;;2.47;;
67514;SDS011;60646;55.802;37.032;2024-02-14T14:02:51;5.28;;;2.55;;
67514;SDS011;60646;55.802;37.032;2024-02-14T14:05:17;5.93;;;2.33;;
67514;SDS011;60646;55.802;37.032;2024-02-14T14:07:43;4.90;;;2.45;;
67514;SDS011;60646;55.802;37.032;2024-02-14T14:10:09;8.10;;;2.67;;
67514;SDS011;60646;55.802;37.032;2024-02-14T14:12:35;5.15;;;2.55;;
67514;SDS011;60646;55.802;37.032;2024-02-14T14:15:02;6.57;;;2.55;;
67514;SDS011;60646;55.802;37.032;2024-02-14T14:17:31;9.10;;;2.88;;
67514;SDS011;60646;55.802;37.032;2024-02-14T14:19:57;5.85;;;2.63;;
67514;SDS011;60646;55.802;37.032;2024-02-14T14:22:25;7.13;;;2.72;;
67514;SDS011;60646;55.802;37.032;2024-02-14T14:24:51;7.25;;;2.88;;
67514;SDS011;60646;55.802;37.032;2024-02-14T14:27:17;6.43;;;2.47;;
67514;SDS011;60646;55.802;37.032;2024-02-14T14:30:05;4.70;;;2.35;;
67514;SDS011;60646;55.802;37.032;2024-02-14T14:32:32;6.13;;;2.50;;
67514;SDS011;60646;55.802;37.032;2024-02-14T14:34:58;5.30;;;2.30;;
67514;SDS011;60646;55.802;37.032;2024-02-14T14:37:24;5.72;;;2.72;;
67514;SDS011;60646;55.802;37.032;2024-02-14T14:39:50;6.05;;;2.88;;
67514;SDS011;60646;55.802;37.032;2024-02-14T14:42:16;5.43;;;2.40;;
67514;SDS011;60646;55.802;37.032;2024-02-14T14:44:43;7.55;;;2.85;;
67514;SDS011;60646;55.802;37.032;2024-02-14T14:47:09;6.35;;;2.22;;
67514;SDS011;60646;55.802;37.032;2024-02-14T14:49:36;4.90;;;2.47;;
67514;SDS011;60646;55.802;37.032;2024-02-14T14:52:03;4.97;;;2.20;;
67514;SDS011;60646;55.802;37.032;2024-02-14T14:54:48;5.47;;;2.35;;
67514;SDS011;60646;55.802;37.032;2024-02-14T14:57:14;6.43;;;2.50;;
67514;SDS011;60646;55.802;37.032;2024-02-14T14:59:41;6.43;;;2.60;;
67514;SDS011;60646;55.802;37.032;2024-02-14T15:02:07;5.63;;;2.65;;
67514;SDS011;60646;55.802;37.032;2024-02-14T15:04:33;6.53;;;2.60;;
67514;SDS011;60646;55.802;37.032;2024-02-14T15:07:02;7.32;;;2.22;;
67514;SDS011;60646;55.802;37.032;2024-02-14T15:09:28;3.80;;;2.17;;